Time;durP1;ratioP1;P1;durP2;ratioP2;P2;SDS_P1;SDS_P2;PMS_P1;PMS_P2;Temp;Humidity;BMP_temperature;BMP_pressure;BME280_temperature;BME280_humidity;BME280_pressure;Samples;Min_cycle;Max_cycle;Signal;HPM_P1;HPM_P2
2021/12/09 00:00:35;;;;;;;;;18.25;16.00;;;;;-149.00;100.00;66333.84;5121415;27;45291;-75
2021/12/09 00:03:05;;;;;;;;;14.75;14.00;;;;;-149.00;100.00;66333.84;5122706;27;45631;-75
2021/12/09 00:05:32;;;;;;;;;16.00;14.75;;;;;-149.00;100.00;66333.84;5122599;27;45463;-75
2021/12/09 00:07:58;;;;;;;;;13.75;13.50;;;;;-149.00;100.00;66333.84;5121725;27;45269;-75
2021/12/09 00:10:23;;;;;;;;;15.25;11.50;;;;;-149.00;100.00;66333.84;5121448;27;45291;-75
2021/12/09 00:12:48;;;;;;;;;16.50;14.00;;;;;-149.00;100.00;66333.84;5121245;27;46043;-74
2021/12/09 00:15:14;;;;;;;;;14.25;12.25;;;;;-149.00;100.00;66333.84;5122567;27;46357;-74
2021/12/09 00:17:39;;;;;;;;;14.50;14.25;;;;;-149.00;100.00;66333.84;5121269;27;45338;-74
2021/12/09 00:20:05;;;;;;;;;21.00;15.00;;;;;-149.00;100.00;66333.84;5121396;27;45298;-76
2021/12/09 00:22:31;;;;;;;;;13.25;13.00;;;;;-149.00;100.00;66333.84;5120955;27;46997;-74
2021/12/09 00:24:57;;;;;;;;;13.25;13.00;;;;;-149.00;100.00;66333.84;5122346;27;45238;-75
2021/12/09 00:27:22;;;;;;;;;11.50;11.50;;;;;-149.00;100.00;66333.84;5122576;27;45384;-74
2021/12/09 00:29:47;;;;;;;;;13.00;12.75;;;;;-149.00;100.00;66333.84;5121121;27;45288;-75
2021/12/09 00:32:13;;;;;;;;;12.00;10.50;;;;;-149.00;100.00;66333.84;5122269;27;45521;-75
2021/12/09 00:34:41;;;;;;;;;13.25;13.25;;;;;-149.00;100.00;66333.84;5120850;27;47349;-75
2021/12/09 00:39:57;;;;;;;;;12.75;10.50;;;;;-149.00;100.00;66333.84;5092439;27;45601;-75
2021/12/09 00:42:25;;;;;;;;;14.75;14.00;;;;;-149.00;100.00;66333.84;5102947;27;47508;-75
2021/12/09 00:44:52;;;;;;;;;13.00;13.00;;;;;-149.00;100.00;66333.84;5101448;27;45673;-75
2021/12/09 00:47:21;;;;;;;;;12.50;12.50;;;;;-149.00;100.00;66333.84;5099990;27;45272;-74
2021/12/09 00:49:47;;;;;;;;;12.25;10.00;;;;;-149.00;100.00;66333.84;5100236;27;45349;-74
2021/12/09 00:52:13;;;;;;;;;11.75;9.00;;;;;-149.00;100.00;66333.84;5099610;27;46326;-75
2021/12/09 00:54:41;;;;;;;;;8.50;8.00;;;;;-149.00;100.00;66333.84;5101240;27;45362;-75
2021/12/09 00:57:07;;;;;;;;;13.00;10.25;;;;;-149.00;100.00;66333.84;5099758;27;46124;-74
2021/12/09 00:59:32;;;;;;;;;12.00;12.00;;;;;-149.00;100.00;66333.84;5101561;27;45201;-74
2021/12/09 01:01:57;;;;;;;;;12.00;10.50;;;;;-149.00;100.00;66333.84;5099763;27;46234;-74
2021/12/09 01:04:23;;;;;;;;;9.50;9.50;;;;;-149.00;100.00;66333.84;5099590;27;47510;-75
2021/12/09 01:06:49;;;;;;;;;9.25;9.25;;;;;-149.00;100.00;66333.84;5101067;27;45284;-74
2021/12/09 01:09:15;;;;;;;;;10.25;9.00;;;;;-149.00;100.00;66333.84;5101354;27;45285;-74
2021/12/09 01:11:40;;;;;;;;;14.00;10.25;;;;;-149.00;100.00;66333.84;5101194;27;45440;-74
2021/12/09 01:14:05;;;;;;;;;10.25;9.00;;;;;-149.00;100.00;66333.84;5101065;27;45224;-74
2021/12/09 01:16:31;;;;;;;;;9.50;8.00;;;;;-149.00;100.00;66333.84;5101086;27;45273;-74
2021/12/09 01:18:57;;;;;;;;;9.00;9.00;;;;;-149.00;100.00;66333.84;5101045;27;45443;-75
2021/12/09 01:21:22;;;;;;;;;8.50;7.75;;;;;-149.00;100.00;66333.84;5100873;27;45479;-74
2021/12/09 01:23:47;;;;;;;;;9.50;8.25;;;;;-149.00;100.00;66333.84;5100915;27;45325;-74
2021/12/09 01:26:13;;;;;;;;;11.25;9.50;;;;;-149.00;100.00;66333.84;5100919;27;45251;-74
2021/12/09 01:28:47;;;;;;;;;9.00;9.00;;;;;-149.00;100.00;66333.84;5099472;27;45268;-75
2021/12/09 01:31:21;;;;;;;;;7.00;7.00;;;;;-149.00;100.00;66333.84;5100914;27;45283;-75
2021/12/09 01:33:47;;;;;;;;;7.25;7.25;;;;;-149.00;100.00;66333.84;5098977;27;48233;-74
2021/12/09 01:36:12;;;;;;;;;7.00;7.00;;;;;-149.00;100.00;66333.84;5100497;27;45294;-75
2021/12/09 01:38:38;;;;;;;;;7.00;6.75;;;;;-149.00;100.00;66333.84;5099443;27;45397;-75
2021/12/09 01:41:03;;;;;;;;;7.00;6.25;;;;;-149.00;100.00;66333.84;5106862;27;45419;-75
2021/12/09 01:43:29;;;;;;;;;7.25;6.00;;;;;-149.00;100.00;66333.84;5120908;27;46088;-75
2021/12/09 01:46:15;;;;;;;;;8.00;8.00;;;;;-149.00;100.00;66333.84;5119812;27;45988;-75
2021/12/09 01:48:43;;;;;;;;;6.75;6.00;;;;;-149.00;100.00;66333.84;5119760;27;45339;-75
2021/12/09 01:51:09;;;;;;;;;8.00;6.75;;;;;-149.00;100.00;66333.84;5120977;27;45504;-74
2021/12/09 01:53:35;;;;;;;;;4.00;4.00;;;;;-149.00;100.00;66333.84;5121205;27;46331;-75
2021/12/09 01:56:03;;;;;;;;;4.00;4.00;;;;;-149.00;100.00;66333.84;5121049;27;45279;-75
2021/12/09 01:58:29;;;;;;;;;5.75;5.75;;;;;-149.00;100.00;66333.84;5121270;27;45258;-75
2021/12/09 02:00:55;;;;;;;;;6.00;6.00;;;;;-149.00;100.00;66333.84;5119307;27;46355;-75
2021/12/09 02:03:20;;;;;;;;;4.00;4.00;;;;;-149.00;100.00;66333.84;5120845;27;46599;-75
2021/12/09 02:05:46;;;;;;;;;7.00;7.00;;;;;-149.00;100.00;66333.84;5119573;27;45350;-75
2021/12/09 02:08:13;;;;;;;;;7.00;7.00;;;;;-149.00;100.00;66333.84;5119419;27;45341;-75
2021/12/09 02:10:41;;;;;;;;;8.75;7.50;;;;;-149.00;100.00;66333.84;5119643;27;46842;-74
2021/12/09 02:13:07;;;;;;;;;6.33;6.33;;;;;-149.00;100.00;66333.84;5120748;27;45275;-74
2021/12/09 02:15:33;;;;;;;;;6.33;4.00;;;;;-149.00;100.00;66333.84;5120802;27;45316;-75
2021/12/09 02:17:59;;;;;;;;;3.00;3.00;;;;;-149.00;100.00;66333.84;5121053;27;45320;-74
2021/12/09 02:20:27;;;;;;;;;8.00;8.00;;;;;-149.00;100.00;66333.84;5120757;27;45538;-75
2021/12/09 02:22:52;;;;;;;;;6.25;6.25;;;;;-149.00;100.00;66333.84;5120475;27;45481;-75
2021/12/09 02:25:19;;;;;;;;;7.67;7.67;;;;;-149.00;100.00;66333.84;5119331;27;45234;-75
2021/12/09 02:27:45;;;;;;;;;9.25;8.50;;;;;-149.00;100.00;66333.84;5119535;27;45280;-75
2021/12/09 02:30:12;;;;;;;;;7.00;7.00;;;;;-149.00;100.00;66333.84;5121443;27;45474;-74
2021/12/09 02:32:37;;;;;;;;;8.00;8.00;;;;;-149.00;100.00;66333.84;5122526;27;47472;-75
2021/12/09 02:35:03;;;;;;;;;7.25;6.00;;;;;-149.00;100.00;66333.84;5124153;27;45322;-75
2021/12/09 02:37:29;;;;;;;;;7.00;7.00;;;;;-149.00;100.00;66333.84;5124139;27;45452;-75
2021/12/09 02:39:56;;;;;;;;;7.50;6.00;;;;;-149.00;100.00;66333.84;5124119;27;45455;-75
2021/12/09 02:42:24;;;;;;;;;6.67;6.67;;;;;-149.00;100.00;66333.84;5104961;27;48312;-75
2021/12/09 02:44:50;;;;;;;;;4.00;3.75;;;;;-149.00;100.00;66333.84;5102081;27;45267;-74
2021/12/09 02:47:16;;;;;;;;;8.50;7.50;;;;;-149.00;100.00;66333.84;5103531;27;45272;-75
2021/12/09 02:49:42;;;;;;;;;7.00;7.00;;;;;-149.00;100.00;66333.84;5103338;27;45622;-75
2021/12/09 02:52:08;;;;;;;;;6.25;6.25;;;;;-149.00;100.00;66333.84;5103264;27;45360;-75
2021/12/09 02:54:33;;;;;;;;;9.00;9.00;;;;;-149.00;100.00;66333.84;5101999;27;45253;-75
2021/12/09 02:57:03;;;;;;;;;7.75;6.00;;;;;-149.00;100.00;66333.84;5102054;27;45367;-74
2021/12/09 02:59:29;;;;;;;;;5.50;5.50;;;;;-149.00;100.00;66333.84;5101924;27;45474;-75
2021/12/09 03:01:58;;;;;;;;;6.00;6.00;;;;;-149.00;100.00;66333.84;5102759;27;45445;-75
2021/12/09 03:04:43;;;;;;;;;7.50;7.50;;;;;-149.00;100.00;66333.84;5103044;27;45403;-74
2021/12/09 03:07:13;;;;;;;;;8.25;8.25;;;;;-149.00;100.00;66333.84;5101596;27;45403;-75
2021/12/09 03:09:48;;;;;;;;;10.25;8.75;;;;;-149.00;100.00;66333.84;5101593;27;46858;-74
2021/12/09 03:12:20;;;;;;;;;7.00;6.00;;;;;-149.00;100.00;66333.84;5103093;27;46203;-74
2021/12/09 03:14:46;;;;;;;;;6.50;6.50;;;;;-149.00;100.00;66333.84;5102940;27;45360;-75
2021/12/09 03:17:11;;;;;;;;;6.00;6.00;;;;;-149.00;100.00;66333.84;5101611;27;45354;-74
2021/12/09 03:19:37;;;;;;;;;7.00;7.00;;;;;-149.00;100.00;66333.84;5102879;27;45248;-74
2021/12/09 03:22:03;;;;;;;;;6.25;4.00;;;;;-149.00;100.00;66333.84;5101371;27;47577;-74
2021/12/09 03:24:28;;;;;;;;;5.75;5.25;;;;;-149.00;100.00;66333.84;5102877;27;45227;-74
2021/12/09 03:26:56;;;;;;;;;7.00;7.00;;;;;-149.00;100.00;66333.84;5101507;27;45295;-74
2021/12/09 03:29:23;;;;;;;;;7.00;5.75;;;;;-149.00;100.00;66333.84;5102809;27;45471;-74
2021/12/09 03:31:51;;;;;;;;;7.25;6.50;;;;;-149.00;100.00;66333.84;5102531;27;45501;-75
2021/12/09 03:34:18;;;;;;;;;7.33;6.33;;;;;-149.00;100.00;66333.84;5102604;27;45294;-75
2021/12/09 03:36:46;;;;;;;;;8.75;6.00;;;;;-149.00;100.00;66333.84;5102602;27;45285;-75
2021/12/09 03:39:17;;;;;;;;;4.00;4.00;;;;;-149.00;100.00;66333.84;5102475;27;45531;-75
2021/12/09 03:41:46;;;;;;;;;6.00;4.00;;;;;-149.00;100.00;66333.84;5111426;27;47302;-75
2021/12/09 03:44:11;;;;;;;;;6.67;4.33;;;;;-149.00;100.00;66333.84;5123149;27;45204;-75
2021/12/09 03:46:37;;;;;;;;;6.00;6.00;;;;;-149.00;100.00;66333.84;5123249;27;45168;-74
2021/12/09 03:49:03;;;;;;;;;4.00;2.00;;;;;-149.00;100.00;66333.84;5122964;27;45326;-75
2021/12/09 03:51:28;;;;;;;;;8.00;6.33;;;;;-149.00;100.00;66333.84;5121547;27;48087;-75
2021/12/09 03:53:54;;;;;;;;;5.00;4.50;;;;;-149.00;100.00;66333.84;5121654;27;45329;-74
2021/12/09 03:56:20;;;;;;;;;3.00;3.00;;;;;-149.00;100.00;66333.84;5123130;27;45259;-74
2021/12/09 03:58:45;;;;;;;;;3.33;3.33;;;;;-149.00;100.00;66333.84;5122963;27;45414;-75
2021/12/09 04:01:11;;;;;;;;;6.67;5.00;;;;;-149.00;100.00;66333.84;5122614;27;45374;-75
2021/12/09 04:03:36;;;;;;;;;4.00;4.00;;;;;-149.00;100.00;66333.84;5122730;27;45300;-74
2021/12/09 04:06:02;;;;;;;;;3.25;3.25;;;;;-149.00;100.00;66333.84;5121550;27;45730;-75
2021/12/09 04:08:27;;;;;;;;;4.75;4.75;;;;;-149.00;100.00;66333.84;5121504;27;46763;-75
2021/12/09 04:10:53;;;;;;;;;4.33;4.33;;;;;-149.00;100.00;66333.84;5122651;27;45519;-75
2021/12/09 04:13:18;;;;;;;;;3.50;3.50;;;;;-149.00;100.00;66333.84;5122818;27;45238;-75
2021/12/09 04:15:44;;;;;;;;;6.25;6.25;;;;;-149.00;100.00;66333.84;5121488;27;45298;-75
2021/12/09 04:18:10;;;;;;;;;5.67;5.67;;;;;-149.00;100.00;66333.84;5121263;27;46047;-74
2021/12/09 04:20:37;;;;;;;;;4.33;4.33;;;;;-149.00;100.00;66333.84;5122625;27;46313;-74
2021/12/09 04:23:03;;;;;;;;;3.25;3.25;;;;;-149.00;100.00;66333.84;5121078;27;46174;-74
2021/12/09 04:25:29;;;;;;;;;3.00;3.00;;;;;-149.00;100.00;66333.84;5122659;27;45293;-75
2021/12/09 04:27:55;;;;;;;;;6.33;5.67;;;;;-149.00;100.00;66333.84;5122352;27;45421;-74
2021/12/09 04:30:22;;;;;;;;;6.00;6.00;;;;;-149.00;100.00;66333.84;5120989;27;46994;-75
2021/12/09 04:32:49;;;;;;;;;3.00;3.00;;;;;-149.00;100.00;66333.84;5122370;27;45263;-75
2021/12/09 04:35:15;;;;;;;;;5.33;5.33;;;;;-149.00;100.00;66333.84;5121146;27;45305;-75
2021/12/09 04:37:40;;;;;;;;;3.33;3.33;;;;;-149.00;100.00;66333.84;5122070;27;45437;-74
2021/12/09 04:40:09;;;;;;;;;4.67;4.67;;;;;-149.00;100.00;66333.84;5122263;27;46206;-75
2021/12/09 04:42:35;;;;;;;;;3.67;3.33;;;;;-149.00;100.00;66333.84;5102677;27;45444;-75
2021/12/09 04:45:01;;;;;;;;;8.67;3.33;;;;;-149.00;100.00;66333.84;5101614;27;45313;-75
2021/12/09 04:47:27;;;;;;;;;2.67;2.67;;;;;-149.00;100.00;66333.84;5101406;27;45317;-74
2021/12/09 04:49:52;;;;;;;;;3.00;3.00;;;;;-149.00;100.00;66333.84;5134698;27;47385;-75
2021/12/09 04:52:17;;;;;;;;;4.00;4.00;;;;;-149.00;100.00;66333.84;5101403;27;45284;-74
2021/12/09 04:54:43;;;;;;;;;4.33;3.00;;;;;-149.00;100.00;66333.84;5101290;27;45167;-75
2021/12/09 04:57:11;;;;;;;;;2.00;2.00;;;;;-149.00;100.00;66333.84;5099846;27;46393;-75
2021/12/09 04:59:36;;;;;;;;;5.00;4.00;;;;;-149.00;100.00;66333.84;5101352;27;45380;-74
2021/12/09 05:02:02;;;;;;;;;3.00;3.00;;;;;-149.00;100.00;66333.84;5099727;27;45243;-75
2021/12/09 05:04:28;;;;;;;;;5.33;4.00;;;;;-149.00;100.00;66333.84;5101304;27;45484;-75
2021/12/09 05:06:55;;;;;;;;;4.00;4.00;;;;;-149.00;100.00;66333.84;5099453;27;45602;-75
2021/12/09 05:09:20;;;;;;;;;4.67;4.67;;;;;-149.00;100.00;66333.84;5101190;27;46411;-74
2021/12/09 05:14:13;;;;;;;;;4.00;4.00;;;;;-149.00;100.00;66333.84;5101369;27;45544;-74
2021/12/09 05:16:39;;;;;;;;;5.67;5.67;;;;;-149.00;100.00;66333.84;5101167;27;45325;-74
2021/12/09 05:19:05;;;;;;;;;5.00;4.00;;;;;-149.00;100.00;66333.84;5099532;27;47479;-75
2021/12/09 05:21:37;;;;;;;;;4.67;3.00;;;;;-149.00;100.00;66333.84;5100799;27;45223;-75
2021/12/09 05:24:04;;;;;;;;;8.25;4.00;;;;;-149.00;100.00;66333.84;5101145;27;45336;-74
2021/12/09 05:26:35;;;;;;;;;7.00;4.33;;;;;-149.00;100.00;66333.84;5099497;27;46224;-74
2021/12/09 05:29:00;;;;;;;;;4.00;4.00;;;;;-149.00;100.00;66333.84;5100844;27;45517;-74
2021/12/09 05:34:12;;;;;;;;;3.67;3.33;;;;;-149.00;100.00;66333.84;5100764;27;45394;-74
2021/12/09 05:36:37;;;;;;;;;2.67;2.67;;;;;-149.00;100.00;66333.84;5100527;27;45310;-74
2021/12/09 05:39:07;;;;;;;;;3.67;3.67;;;;;-149.00;100.00;66333.84;5100738;27;46481;-75
2021/12/09 05:41:33;;;;;;;;;2.67;2.00;;;;;-149.00;100.00;66333.84;5099306;27;45475;-74
2021/12/09 05:43:59;;;;;;;;;3.00;3.00;;;;;-149.00;100.00;66333.84;5099105;27;45994;-74
2021/12/09 05:46:25;;;;;;;;;4.33;4.00;;;;;-149.00;100.00;66333.84;5099122;27;46343;-74
2021/12/09 05:48:50;;;;;;;;;5.33;3.00;;;;;-149.00;100.00;66333.84;5099017;27;46398;-75
2021/12/09 05:51:16;;;;;;;;;2.33;2.33;;;;;-149.00;100.00;66333.84;5100416;27;45402;-74
2021/12/09 05:53:42;;;;;;;;;4.00;4.00;;;;;-149.00;100.00;66333.84;5100629;27;45349;-75
2021/12/09 05:56:07;;;;;;;;;4.00;4.00;;;;;-149.00;100.00;66333.84;5100653;27;45484;-74
2021/12/09 05:58:32;;;;;;;;;2.33;2.33;;;;;-149.00;100.00;66333.84;5098648;27;47057;-77
2021/12/09 06:00:58;;;;;;;;;7.33;3.67;;;;;-149.00;100.00;66333.84;5101198;27;45267;-77
2021/12/09 06:03:23;;;;;;;;;3.67;3.33;;;;;-149.00;100.00;66333.84;5098962;27;45271;-75
2021/12/09 06:05:50;;;;;;;;;3.00;3.00;;;;;-149.00;100.00;66333.84;5099198;27;45408;-78
2021/12/09 06:08:16;;;;;;;;;2.33;2.33;;;;;-149.00;100.00;66333.84;5098922;27;48510;-78
2021/12/09 06:10:41;;;;;;;;;4.33;4.00;;;;;-149.00;100.00;66333.84;5098755;27;45276;-75
2021/12/09 06:13:07;;;;;;;;;13.00;10.75;;;;;-149.00;100.00;66333.84;5100343;27;45206;-74
2021/12/09 06:15:32;;;;;;;;;4.00;4.00;;;;;-149.00;100.00;66333.84;5100518;27;45349;-74
2021/12/09 06:17:58;;;;;;;;;6.50;4.50;;;;;-149.00;100.00;66333.84;5099943;27;45348;-74
2021/12/09 06:20:25;;;;;;;;;9.50;5.00;;;;;-149.00;100.00;66333.84;5098808;27;45334;-75
2021/12/09 06:22:50;;;;;;;;;4.75;4.50;;;;;-149.00;100.00;66333.84;5099931;27;45360;-75
2021/12/09 06:25:18;;;;;;;;;5.25;5.25;;;;;-149.00;100.00;66333.84;5099801;27;45320;-78
2021/12/09 06:27:45;;;;;;;;;4.00;4.00;;;;;-149.00;100.00;66333.84;5099951;27;45580;-78
2021/12/09 06:30:11;;;;;;;;;6.67;4.67;;;;;-149.00;100.00;66333.84;5098473;27;45243;-78
2021/12/09 06:32:37;;;;;;;;;9.00;7.50;;;;;-149.00;100.00;66333.84;5098493;27;45434;-78
2021/12/09 06:35:04;;;;;;;;;7.75;7.25;;;;;-149.00;100.00;66333.84;5099751;27;45464;-78
2021/12/09 06:37:30;;;;;;;;;8.50;8.25;;;;;-149.00;100.00;66333.84;5098348;27;47300;-75
2021/12/09 06:39:56;;;;;;;;;3.00;3.00;;;;;-149.00;100.00;66333.84;5098594;27;45370;-74
2021/12/09 06:42:21;;;;;;;;;6.67;5.67;;;;;-149.00;100.00;66333.84;5116708;27;45301;-78
2021/12/09 06:44:47;;;;;;;;;6.67;6.67;;;;;-149.00;100.00;66333.84;5119018;27;46098;-78
2021/12/09 06:47:12;;;;;;;;;9.00;8.00;;;;;-149.00;100.00;66333.84;5120237;27;46334;-77
2021/12/09 06:49:38;;;;;;;;;6.00;6.00;;;;;-149.00;100.00;66333.84;5120327;27;45241;-78
2021/12/09 06:52:04;;;;;;;;;9.00;6.50;;;;;-149.00;100.00;66333.84;5118870;27;45403;-78
2021/12/09 06:54:29;;;;;;;;;9.25;8.25;;;;;-149.00;100.00;66333.84;5118984;27;46334;-76
2021/12/09 06:56:55;;;;;;;;;11.25;11.25;;;;;-149.00;100.00;66333.84;5118828;27;47012;-76
2021/12/09 06:59:20;;;;;;;;;10.00;8.00;;;;;-149.00;100.00;66333.84;5118849;27;45336;-76
2021/12/09 07:01:46;;;;;;;;;8.75;8.75;;;;;-149.00;100.00;66333.84;5118718;27;45245;-76
2021/12/09 07:04:11;;;;;;;;;12.25;11.25;;;;;-149.00;100.00;66333.84;5120037;27;45460;-76
2021/12/09 07:06:38;;;;;;;;;13.50;9.75;;;;;-149.00;100.00;66333.84;5118538;27;47935;-76
2021/12/09 07:09:04;;;;;;;;;11.50;9.00;;;;;-149.00;100.00;66333.84;5118724;27;45756;-76
2021/12/09 07:11:31;;;;;;;;;9.25;8.25;;;;;-149.00;100.00;66333.84;5120053;27;45324;-76
2021/12/09 07:13:57;;;;;;;;;7.00;7.00;;;;;-149.00;100.00;66333.84;5118549;27;46397;-75
2021/12/09 07:16:22;;;;;;;;;10.25;10.25;;;;;-149.00;100.00;66333.84;5119653;27;47194;-75
2021/12/09 07:18:48;;;;;;;;;9.75;8.00;;;;;-149.00;100.00;66333.84;5122105;27;45650;-77
2021/12/09 07:21:14;;;;;;;;;8.75;8.50;;;;;-149.00;100.00;66333.84;5123484;27;45240;-76
2021/12/09 07:23:39;;;;;;;;;9.25;8.75;;;;;-149.00;100.00;66333.84;5123310;27;45215;-74
2021/12/09 07:26:05;;;;;;;;;9.25;9.00;;;;;-149.00;100.00;66333.84;5121957;27;47017;-75
2021/12/09 07:28:30;;;;;;;;;13.25;9.75;;;;;-149.00;100.00;66333.84;5123530;27;45269;-75
2021/12/09 07:30:56;;;;;;;;;11.00;11.00;;;;;-149.00;100.00;66333.84;5123367;27;45136;-75
2021/12/09 07:33:21;;;;;;;;;10.00;9.00;;;;;-149.00;100.00;66333.84;5121655;27;46173;-75
2021/12/09 07:35:47;;;;;;;;;10.50;9.25;;;;;-149.00;100.00;66333.84;5121539;27;47256;-75
2021/12/09 07:38:13;;;;;;;;;10.50;9.50;;;;;-149.00;100.00;66333.84;5103423;27;45310;-74
2021/12/09 07:40:39;;;;;;;;;10.67;10.67;;;;;-149.00;100.00;66333.84;5105448;27;45352;-74
2021/12/09 07:43:05;;;;;;;;;10.50;10.00;;;;;-149.00;100.00;66333.84;5121450;27;45935;-74
2021/12/09 07:45:31;;;;;;;;;10.75;10.25;;;;;-149.00;100.00;66333.84;5121697;27;48603;-75
2021/12/09 07:47:58;;;;;;;;;12.00;10.75;;;;;-149.00;100.00;66333.84;5121501;27;45313;-75
2021/12/09 07:50:28;;;;;;;;;9.75;8.25;;;;;-149.00;100.00;66333.84;5123064;27;45282;-75
2021/12/09 07:52:54;;;;;;;;;9.75;9.75;;;;;-149.00;100.00;66333.84;5121357;27;46066;-74
2021/12/09 07:55:21;;;;;;;;;10.50;10.50;;;;;-149.00;100.00;66333.84;5122658;27;46563;-75
2021/12/09 07:57:47;;;;;;;;;12.00;10.50;;;;;-149.00;100.00;66333.84;5122767;27;45330;-76
2021/12/09 08:00:17;;;;;;;;;9.25;8.50;;;;;-149.00;100.00;66333.84;5121515;27;45463;-75
2021/12/09 08:02:45;;;;;;;;;9.00;9.00;;;;;-149.00;100.00;66333.84;5122588;27;45555;-75
2021/12/09 08:05:12;;;;;;;;;10.50;10.50;;;;;-149.00;100.00;66333.84;5121208;27;48304;-75
2021/12/09 08:07:41;;;;;;;;;13.75;9.75;;;;;-149.00;100.00;66333.84;5100828;27;45345;-75
2021/12/09 08:10:07;;;;;;;;;10.00;10.00;;;;;-149.00;100.00;66333.84;5100756;27;45330;-75
2021/12/09 08:12:33;;;;;;;;;9.75;9.00;;;;;-149.00;100.00;66333.84;5100480;27;46465;-74
2021/12/09 08:14:58;;;;;;;;;11.00;11.00;;;;;-149.00;100.00;66333.84;5100506;27;47863;-74
2021/12/09 08:17:44;;;;;;;;;9.75;9.00;;;;;-149.00;100.00;66333.84;5101823;27;45285;-74
2021/12/09 08:20:16;;;;;;;;;11.00;10.00;;;;;-149.00;100.00;66333.84;5102148;27;45278;-75
2021/12/09 08:22:44;;;;;;;;;15.25;15.00;;;;;-149.00;100.00;66333.84;5100054;27;46337;-75
2021/12/09 08:25:13;;;;;;;;;11.75;11.75;;;;;-149.00;100.00;66333.84;5101766;27;45421;-76
2021/12/09 08:27:40;;;;;;;;;11.75;10.00;;;;;-149.00;100.00;66333.84;5099532;27;45671;-76
2021/12/09 08:30:06;;;;;;;;;13.00;11.25;;;;;-149.00;100.00;66333.84;5100332;27;45376;-75
2021/12/09 08:32:33;;;;;;;;;11.25;11.25;;;;;-149.00;100.00;66333.84;5101348;27;45495;-74
2021/12/09 08:34:59;;;;;;;;;13.75;11.50;;;;;-149.00;100.00;66333.84;5100054;27;46491;-75
2021/12/09 08:37:25;;;;;;;;;10.50;9.50;;;;;-149.00;100.00;66333.84;5100124;27;45615;-75
2021/12/09 08:39:50;;;;;;;;;12.50;12.50;;;;;-149.00;100.00;66333.84;5101685;27;45286;-74
2021/12/09 08:42:17;;;;;;;;;8.00;8.00;;;;;-149.00;100.00;66333.84;5117531;27;45459;-74
2021/12/09 08:44:43;;;;;;;;;12.00;10.50;;;;;-149.00;100.00;66333.84;5120646;27;48395;-74
2021/12/09 08:47:09;;;;;;;;;15.00;12.75;;;;;-149.00;100.00;66333.84;5120578;27;45282;-74
2021/12/09 08:49:34;;;;;;;;;14.25;12.25;;;;;-149.00;100.00;66333.84;5122200;27;45283;-75
2021/12/09 08:52:00;;;;;;;;;13.50;12.75;;;;;-149.00;100.00;66333.84;5120222;27;46320;-75
2021/12/09 08:54:27;;;;;;;;;15.50;14.00;;;;;-149.00;100.00;66333.84;5120619;27;47842;-74
2021/12/09 08:56:53;;;;;;;;;11.00;10.50;;;;;-149.00;100.00;66333.84;5122045;27;46053;-75
2021/12/09 08:59:22;;;;;;;;;13.25;13.25;;;;;-149.00;100.00;66333.84;5120756;27;45453;-74
2021/12/09 09:01:48;;;;;;;;;15.50;14.25;;;;;-149.00;100.00;66333.84;5120215;27;46818;-75
2021/12/09 09:04:14;;;;;;;;;12.00;10.00;;;;;-149.00;100.00;66333.84;5121560;27;45256;-74
2021/12/09 09:06:57;;;;;;;;;14.50;14.50;;;;;-149.00;100.00;66333.84;5121706;27;45281;-75
2021/12/09 09:09:26;;;;;;;;;9.75;9.75;;;;;-149.00;100.00;66333.84;5156037;27;45321;-75
2021/12/09 09:11:52;;;;;;;;;13.50;12.25;;;;;-149.00;100.00;66333.84;5121466;27;45219;-75
2021/12/09 09:14:18;;;;;;;;;13.00;11.50;;;;;-149.00;100.00;66333.84;5120296;27;47288;-75
2021/12/09 09:16:43;;;;;;;;;13.25;11.50;;;;;-149.00;100.00;66333.84;5121699;27;45289;-75
2021/12/09 09:19:09;;;;;;;;;11.75;10.25;;;;;-149.00;100.00;66333.84;5121676;27;45471;-75
2021/12/09 09:21:36;;;;;;;;;13.25;12.50;;;;;-149.00;100.00;66333.84;5121495;27;45263;-74
2021/12/09 09:24:03;;;;;;;;;18.25;14.00;;;;;-149.00;100.00;66333.84;5121284;27;45448;-74
2021/12/09 09:26:30;;;;;;;;;10.75;9.25;;;;;-149.00;100.00;66333.84;5121458;27;45165;-74
2021/12/09 09:28:55;;;;;;;;;13.50;13.50;;;;;-149.00;100.00;66333.84;5120404;27;45278;-75
2021/12/09 09:31:24;;;;;;;;;11.25;11.25;;;;;-149.00;100.00;66333.84;5119857;27;46123;-75
2021/12/09 09:33:49;;;;;;;;;11.00;10.00;;;;;-149.00;100.00;66333.84;5121393;27;46628;-74
2021/12/09 09:36:15;;;;;;;;;12.75;9.50;;;;;-149.00;100.00;66333.84;5120892;27;45312;-74
2021/12/09 09:38:40;;;;;;;;;16.50;14.00;;;;;-149.00;100.00;66333.84;5121461;27;45314;-75
2021/12/09 09:41:10;;;;;;;;;14.75;12.00;;;;;-149.00;100.00;66333.84;5113355;27;45247;-75
2021/12/09 09:43:57;;;;;;;;;12.75;12.75;;;;;-149.00;100.00;66333.84;5100302;27;45302;-74
2021/12/09 09:46:28;;;;;;;;;16.50;13.00;;;;;-149.00;100.00;66333.84;5099092;27;46088;-75
2021/12/09 09:48:55;;;;;;;;;11.25;10.00;;;;;-149.00;100.00;66333.84;5099327;27;45290;-75
2021/12/09 09:51:23;;;;;;;;;18.25;16.25;;;;;-149.00;100.00;66333.84;5098821;27;46241;-75
2021/12/09 09:53:49;;;;;;;;;12.00;10.50;;;;;-149.00;100.00;66333.84;5100489;27;46388;-75
2021/12/09 09:56:19;;;;;;;;;13.25;11.50;;;;;-149.00;100.00;66333.84;5100588;27;45286;-75
2021/12/09 09:58:51;;;;;;;;;14.25;14.00;;;;;-149.00;100.00;66333.84;5100640;27;45278;-75
2021/12/09 10:01:17;;;;;;;;;12.25;11.50;;;;;-149.00;100.00;66333.84;5100014;27;45385;-75
2021/12/09 10:03:46;;;;;;;;;16.00;13.25;;;;;-149.00;100.00;66333.84;5098691;27;47403;-75
2021/12/09 10:06:14;;;;;;;;;21.00;17.00;;;;;-149.00;100.00;66333.84;5098820;27;45268;-75
2021/12/09 10:08:40;;;;;;;;;10.75;10.75;;;;;-149.00;100.00;66333.84;5099077;27;45330;-75
2021/12/09 10:11:06;;;;;;;;;14.75;13.50;;;;;-149.00;100.00;66333.84;5133306;27;45998;-75
2021/12/09 10:13:35;;;;;;;;;17.75;14.00;;;;;-149.00;100.00;66333.84;5100252;27;46179;-75
2021/12/09 10:16:04;;;;;;;;;13.00;10.75;;;;;-149.00;100.00;66333.84;5098885;27;45193;-75
2021/12/09 10:18:43;;;;;;;;;11.75;11.75;;;;;-149.00;100.00;66333.84;5098906;27;45264;-75
2021/12/09 10:21:18;;;;;;;;;11.75;11.75;;;;;-149.00;100.00;66333.84;5099979;27;45441;-75
2021/12/09 10:23:48;;;;;;;;;15.50;15.50;;;;;-149.00;100.00;66333.84;5098603;27;47373;-75
2021/12/09 10:26:30;;;;;;;;;9.50;9.00;;;;;-149.00;100.00;66333.84;5100157;27;45377;-74
2021/12/09 10:29:25;;;;;;;;;14.75;13.00;;;;;-149.00;100.00;66333.84;5098772;27;45330;-75
2021/12/09 10:31:59;;;;;;;;;18.25;14.50;;;;;-149.00;100.00;66333.84;5100112;27;45225;-75
2021/12/09 10:36:57;;;;;;;;;16.00;15.00;;;;;-149.00;100.00;66333.84;5099669;27;45398;-75
2021/12/09 10:39:35;;;;;;;;;15.00;15.00;;;;;-149.00;100.00;66333.84;5098740;27;45483;-75
2021/12/09 10:42:07;;;;;;;;;13.25;11.50;;;;;-149.00;100.00;66333.84;5097913;27;45984;-76
2021/12/09 10:44:49;;;;;;;;;12.67;12.33;;;;;-149.00;100.00;66333.84;5099727;27;46676;-76
2021/12/09 10:47:25;;;;;;;;;12.33;11.33;;;;;-149.00;100.00;66333.84;5099641;27;45380;-76
2021/12/09 10:50:20;;;;;;;;;10.75;10.50;;;;;-149.00;100.00;66333.84;5099750;27;45342;-75
2021/12/09 10:52:50;;;;;;;;;13.00;12.00;;;;;-149.00;100.00;66333.84;5101205;27;46199;-75
2021/12/09 10:55:22;;;;;;;;;10.67;10.00;;;;;-149.00;100.00;66333.84;5101735;27;47506;-75
2021/12/09 10:58:02;;;;;;;;;13.33;12.67;;;;;-149.00;100.00;66333.84;5101897;27;45748;-75
2021/12/09 11:00:34;;;;;;;;;15.25;13.75;;;;;-149.00;100.00;66333.84;5103145;27;45211;-75
2021/12/09 11:03:12;;;;;;;;;8.67;8.67;;;;;-149.00;100.00;66333.84;5101503;27;47239;-76
2021/12/09 11:05:43;;;;;;;;;10.67;9.00;;;;;-149.00;100.00;66333.84;5101224;27;48173;-76
2021/12/09 11:08:16;;;;;;;;;9.00;9.00;;;;;-149.00;100.00;66333.84;5103141;27;45249;-76
2021/12/09 11:10:47;;;;;;;;;10.67;9.00;;;;;-149.00;100.00;66333.84;5101516;27;45370;-75
2021/12/09 11:13:14;;;;;;;;;9.00;9.00;;;;;-149.00;100.00;66333.84;5101352;27;47006;-77
2021/12/09 11:15:44;;;;;;;;;9.67;9.00;;;;;-149.00;100.00;66333.84;5101339;27;47078;-75